sensor_id;sensor_type;location;lat;lon;timestamp;pressure;altitude;pressure_sealevel;temperature;humidity
53514;BME280;39768;54.148;12.174;2023-02-07T00:02:00;104193.03;;;0.03;100.00
53514;BME280;39768;54.148;12.174;2023-02-07T00:06:11;104180.75;;;-0.09;100.00
53514;BME280;39768;54.148;12.174;2023-02-07T00:10:15;104185.19;;;0.03;100.00
53514;BME280;39768;54.148;12.174;2023-02-07T00:14:17;104177.50;;;0.14;100.00
53514;BME280;39768;54.148;12.174;2023-02-07T00:18:18;104185.44;;;0.16;100.00
53514;BME280;39768;54.148;12.174;2023-02-07T00:22:20;104185.97;;;0.12;100.00
53514;BME280;39768;54.148;12.174;2023-02-07T00:26:23;104181.16;;;0.06;100.00
53514;BME280;39768;54.148;12.174;2023-02-07T00:30:30;104185.06;;;0.11;100.00
53514;BME280;39768;54.148;12.174;2023-02-07T00:34:32;104179.31;;;0.05;100.00
53514;BME280;39768;54.148;12.174;2023-02-07T00:38:38;104192.13;;;0.12;100.00
53514;BME280;39768;54.148;12.174;2023-02-07T00:42:40;104187.94;;;0.14;100.00
53514;BME280;39768;54.148;12.174;2023-02-07T00:46:41;104176.19;;;0.09;100.00
53514;BME280;39768;54.148;12.174;2023-02-07T00:50:43;104180.75;;;0.12;100.00
53514;BME280;39768;54.148;12.174;2023-02-07T00:54:44;104172.13;;;0.03;100.00
53514;BME280;39768;54.148;12.174;2023-02-07T00:58:46;104172.91;;;0.02;100.00
53514;BME280;39768;54.148;12.174;2023-02-07T01:02:51;104170.13;;;0.30;100.00
53514;BME280;39768;54.148;12.174;2023-02-07T01:06:53;104157.16;;;0.42;100.00
53514;BME280;39768;54.148;12.174;2023-02-07T01:10:54;104158.34;;;0.35;100.00
53514;BME280;39768;54.148;12.174;2023-02-07T01:14:57;104152.59;;;0.40;100.00
53514;BME280;39768;54.148;12.174;2023-02-07T01:19:08;104154.72;;;0.23;100.00
53514;BME280;39768;54.148;12.174;2023-02-07T01:23:11;104148.88;;;0.06;100.00
53514;BME280;39768;54.148;12.174;2023-02-07T01:27:13;104143.91;;;0.09;100.00
53514;BME280;39768;54.148;12.174;2023-02-07T01:31:14;104144.75;;;0.40;100.00
53514;BME280;39768;54.148;12.174;2023-02-07T01:35:16;104143.53;;;0.46;100.00
53514;BME280;39768;54.148;12.174;2023-02-07T01:39:18;104144.44;;;0.05;100.00
53514;BME280;39768;54.148;12.174;2023-02-07T01:43:22;104143.66;;;0.06;100.00
53514;BME280;39768;54.148;12.174;2023-02-07T01:47:25;104144.19;;;0.12;100.00
53514;BME280;39768;54.148;12.174;2023-02-07T01:51:29;104144.34;;;-0.07;100.00
53514;BME280;39768;54.148;12.174;2023-02-07T01:55:35;104142.53;;;-0.18;100.00
53514;BME280;39768;54.148;12.174;2023-02-07T01:59:43;104146.28;;;-0.15;100.00
53514;BME280;39768;54.148;12.174;2023-02-07T02:03:48;104144.47;;;-0.26;100.00
53514;BME280;39768;54.148;12.174;2023-02-07T02:07:50;104151.13;;;-0.29;100.00
53514;BME280;39768;54.148;12.174;2023-02-07T02:16:37;104136.66;;;-0.46;100.00
53514;BME280;39768;54.148;12.174;2023-02-07T02:29:15;104135.34;;;-0.51;100.00
53514;BME280;39768;54.148;12.174;2023-02-07T02:33:42;104127.41;;;-0.63;100.00
53514;BME280;39768;54.148;12.174;2023-02-07T02:37:58;104121.63;;;-0.59;100.00
53514;BME280;39768;54.148;12.174;2023-02-07T02:42:20;104110.97;;;-0.62;100.00
53514;BME280;39768;54.148;12.174;2023-02-07T02:46:28;104098.19;;;-0.49;100.00
53514;BME280;39768;54.148;12.174;2023-02-07T02:50:35;104095.44;;;-0.50;100.00
53514;BME280;39768;54.148;12.174;2023-02-07T02:54:38;104105.44;;;-0.24;100.00
53514;BME280;39768;54.148;12.174;2023-02-07T03:07:48;104093.47;;;-0.32;100.00
53514;BME280;39768;54.148;12.174;2023-02-07T03:11:59;104090.81;;;-0.22;100.00
53514;BME280;39768;54.148;12.174;2023-02-07T03:16:19;104082.41;;;0.02;100.00
53514;BME280;39768;54.148;12.174;2023-02-07T03:20:27;104089.63;;;-0.06;100.00
53514;BME280;39768;54.148;12.174;2023-02-07T03:24:32;104088.56;;;-0.08;100.00
53514;BME280;39768;54.148;12.174;2023-02-07T03:28:36;104087.56;;;-0.40;100.00
53514;BME280;39768;54.148;12.174;2023-02-07T03:32:41;104079.34;;;-0.24;100.00
53514;BME280;39768;54.148;12.174;2023-02-07T03:36:57;104067.34;;;-0.22;100.00
53514;BME280;39768;54.148;12.174;2023-02-07T03:41:05;104070.25;;;-0.60;100.00
53514;BME280;39768;54.148;12.174;2023-02-07T03:45:13;104047.28;;;-0.74;100.00
53514;BME280;39768;54.148;12.174;2023-02-07T03:49:15;104049.50;;;-0.48;100.00
53514;BME280;39768;54.148;12.174;2023-02-07T03:53:18;104050.16;;;-0.61;100.00
53514;BME280;39768;54.148;12.174;2023-02-07T03:57:20;104044.63;;;-0.44;100.00
53514;BME280;39768;54.148;12.174;2023-02-07T04:01:21;104034.69;;;-0.27;100.00
53514;BME280;39768;54.148;12.174;2023-02-07T04:05:23;104030.31;;;-0.49;100.00
53514;BME280;39768;54.148;12.174;2023-02-07T04:09:25;104029.81;;;-0.03;100.00
53514;BME280;39768;54.148;12.174;2023-02-07T04:13:27;104031.78;;;-0.10;100.00
53514;BME280;39768;54.148;12.174;2023-02-07T04:17:29;104035.59;;;-0.17;100.00
53514;BME280;39768;54.148;12.174;2023-02-07T04:21:31;104037.72;;;-0.33;100.00
53514;BME280;39768;54.148;12.174;2023-02-07T04:25:33;104038.66;;;-0.32;100.00
53514;BME280;39768;54.148;12.174;2023-02-07T04:29:37;104044.56;;;-0.65;100.00
53514;BME280;39768;54.148;12.174;2023-02-07T04:33:39;104054.31;;;-0.53;100.00
53514;BME280;39768;54.148;12.174;2023-02-07T04:37:42;104068.41;;;-0.41;100.00
53514;BME280;39768;54.148;12.174;2023-02-07T04:41:48;104083.81;;;-0.54;100.00
53514;BME280;39768;54.148;12.174;2023-02-07T04:45:50;104079.78;;;-0.60;100.00
53514;BME280;39768;54.148;12.174;2023-02-07T04:49:52;104094.25;;;-0.64;100.00
53514;BME280;39768;54.148;12.174;2023-02-07T04:53:55;104100.25;;;-0.65;100.00
53514;BME280;39768;54.148;12.174;2023-02-07T04:57:57;104100.25;;;-0.45;100.00
53514;BME280;39768;54.148;12.174;2023-02-07T05:02:03;104089.94;;;-0.74;100.00
53514;BME280;39768;54.148;12.174;2023-02-07T05:06:05;104099.03;;;-0.89;100.00
53514;BME280;39768;54.148;12.174;2023-02-07T05:10:09;104089.78;;;-0.85;100.00
53514;BME280;39768;54.148;12.174;2023-02-07T05:14:11;104089.78;;;-0.85;100.00
53514;BME280;39768;54.148;12.174;2023-02-07T05:18:14;104092.16;;;-0.78;100.00
53514;BME280;39768;54.148;12.174;2023-02-07T05:22:18;104080.41;;;-0.83;100.00
53514;BME280;39768;54.148;12.174;2023-02-07T05:26:21;104083.56;;;-0.67;100.00
53514;BME280;39768;54.148;12.174;2023-02-07T05:30:25;104088.91;;;-0.65;100.00
53514;BME280;39768;54.148;12.174;2023-02-07T05:34:28;104097.13;;;-0.81;100.00
53514;BME280;39768;54.148;12.174;2023-02-07T05:38:31;104098.44;;;-0.66;100.00
53514;BME280;39768;54.148;12.174;2023-02-07T05:42:34;104104.81;;;-0.62;100.00
53514;BME280;39768;54.148;12.174;2023-02-07T05:46:38;104098.41;;;-0.56;100.00
53514;BME280;39768;54.148;12.174;2023-02-07T05:50:41;104109.91;;;-0.64;100.00
53514;BME280;39768;54.148;12.174;2023-02-07T05:54:44;104101.81;;;-0.67;100.00
53514;BME280;39768;54.148;12.174;2023-02-07T05:58:53;104107.94;;;-0.66;100.00
53514;BME280;39768;54.148;12.174;2023-02-07T06:02:55;104111.06;;;-0.81;100.00
53514;BME280;39768;54.148;12.174;2023-02-07T06:07:09;104101.41;;;-0.92;100.00
53514;BME280;39768;54.148;12.174;2023-02-07T06:11:13;104104.56;;;-0.76;100.00
53514;BME280;39768;54.148;12.174;2023-02-07T06:16:09;104104.69;;;-0.64;100.00
53514;BME280;39768;54.148;12.174;2023-02-07T06:20:15;104113.31;;;-0.65;100.00
53514;BME280;39768;54.148;12.174;2023-02-07T06:24:17;104108.59;;;-0.69;100.00
53514;BME280;39768;54.148;12.174;2023-02-07T06:28:21;104103.25;;;-0.50;100.00
53514;BME280;39768;54.148;12.174;2023-02-07T06:32:23;104115.50;;;-0.80;100.00
53514;BME280;39768;54.148;12.174;2023-02-07T06:36:24;104116.69;;;-0.76;100.00
53514;BME280;39768;54.148;12.174;2023-02-07T06:40:26;104123.31;;;-0.90;100.00
53514;BME280;39768;54.148;12.174;2023-02-07T06:44:27;104130.13;;;-0.41;100.00
53514;BME280;39768;54.148;12.174;2023-02-07T06:48:29;104137.28;;;-0.59;100.00
53514;BME280;39768;54.148;12.174;2023-02-07T06:52:31;104137.22;;;-1.20;100.00
53514;BME280;39768;54.148;12.174;2023-02-07T06:56:32;104127.06;;;-1.46;100.00
53514;BME280;39768;54.148;12.174;2023-02-07T07:00:34;104136.66;;;-1.55;100.00
53514;BME280;39768;54.148;12.174;2023-02-07T07:04:35;104135.72;;;-1.36;100.00
53514;BME280;39768;54.148;12.174;2023-02-07T07:08:37;104131.38;;;-1.07;100.00
53514;BME280;39768;54.148;12.174;2023-02-07T07:12:38;104128.91;;;-0.85;100.00
53514;BME280;39768;54.148;12.174;2023-02-07T07:16:40;104120.31;;;-0.84;100.00
53514;BME280;39768;54.148;12.174;2023-02-07T07:20:42;104130.78;;;-0.64;100.00
53514;BME280;39768;54.148;12.174;2023-02-07T07:24:43;104135.81;;;-0.96;100.00
53514;BME280;39768;54.148;12.174;2023-02-07T07:28:45;104145.75;;;-0.92;100.00
53514;BME280;39768;54.148;12.174;2023-02-07T07:32:47;104132.31;;;-0.86;100.00
53514;BME280;39768;54.148;12.174;2023-02-07T07:36:49;104131.56;;;-0.65;100.00
53514;BME280;39768;54.148;12.174;2023-02-07T07:40:50;104131.84;;;-0.52;100.00
53514;BME280;39768;54.148;12.174;2023-02-07T07:44:54;104130.13;;;-0.41;100.00
53514;BME280;39768;54.148;12.174;2023-02-07T07:48:56;104122.72;;;-0.47;100.00
53514;BME280;39768;54.148;12.174;2023-02-07T07:53:15;104134.03;;;-0.06;100.00
53514;BME280;39768;54.148;12.174;2023-02-07T07:57:17;104134.25;;;0.08;100.00
53514;BME280;39768;54.148;12.174;2023-02-07T08:01:23;104126.38;;;0.28;100.00
53514;BME280;39768;54.148;12.174;2023-02-07T08:05:50;104123.06;;;0.41;100.00
53514;BME280;39768;54.148;12.174;2023-02-07T08:09:52;104120.53;;;0.52;100.00
53514;BME280;39768;54.148;12.174;2023-02-07T08:13:54;104121.03;;;0.80;100.00
53514;BME280;39768;54.148;12.174;2023-02-07T08:17:56;104123.56;;;1.00;100.00
53514;BME280;39768;54.148;12.174;2023-02-07T08:21:58;104127.75;;;0.98;100.00
53514;BME280;39768;54.148;12.174;2023-02-07T08:26:00;104137.06;;;0.63;100.00
53514;BME280;39768;54.148;12.174;2023-02-07T08:30:11;104135.47;;;1.19;100.00
53514;BME280;39768;54.148;12.174;2023-02-07T08:34:19;104126.56;;;1.50;100.00
53514;BME280;39768;54.148;12.174;2023-02-07T08:38:37;104122.31;;;1.29;100.00
53514;BME280;39768;54.148;12.174;2023-02-07T08:42:40;104135.63;;;1.32;100.00
53514;BME280;39768;54.148;12.174;2023-02-07T08:46:44;104129.97;;;1.49;100.00
53514;BME280;39768;54.148;12.174;2023-02-07T08:51:40;104133.59;;;1.73;100.00
53514;BME280;39768;54.148;12.174;2023-02-07T08:55:44;104125.25;;;1.67;100.00
53514;BME280;39768;54.148;12.174;2023-02-07T08:59:53;104130.38;;;1.65;100.00
53514;BME280;39768;54.148;12.174;2023-02-07T09:05:19;104128.72;;;1.77;100.00
53514;BME280;39768;54.148;12.174;2023-02-07T09:10:25;104117.22;;;1.99;100.00
53514;BME280;39768;54.148;12.174;2023-02-07T09:14:39;104115.97;;;2.17;100.00
53514;BME280;39768;54.148;12.174;2023-02-07T09:18:43;104118.00;;;2.44;100.00
53514;BME280;39768;54.148;12.174;2023-02-07T09:22:53;104127.88;;;2.72;100.00
53514;BME280;39768;54.148;12.174;2023-02-07T09:27:25;104133.72;;;2.56;100.00
53514;BME280;39768;54.148;12.174;2023-02-07T09:31:26;104128.69;;;2.71;100.00
53514;BME280;39768;54.148;12.174;2023-02-07T09:35:28;104118.38;;;2.86;100.00
53514;BME280;39768;54.148;12.174;2023-02-07T09:39:30;104108.38;;;2.80;100.00
53514;BME280;39768;54.148;12.174;2023-02-07T09:47:53;104102.97;;;2.90;100.00
53514;BME280;39768;54.148;12.174;2023-02-07T09:52:03;104101.97;;;3.38;100.00
53514;BME280;39768;54.148;12.174;2023-02-07T09:56:07;104100.97;;;3.87;100.00
53514;BME280;39768;54.148;12.174;2023-02-07T10:00:30;104104.69;;;3.77;100.00
53514;BME280;39768;54.148;12.174;2023-02-07T10:04:38;104100.47;;;3.79;100.00
53514;BME280;39768;54.148;12.174;2023-02-07T10:08:50;104097.94;;;3.68;100.00
53514;BME280;39768;54.148;12.174;2023-02-07T10:13:15;104099.75;;;3.69;100.00
53514;BME280;39768;54.148;12.174;2023-02-07T10:18:02;104099.44;;;3.77;100.00
53514;BME280;39768;54.148;12.174;2023-02-07T10:21:55;104112.13;;;3.58;100.00
53514;BME280;39768;54.148;12.174;2023-02-07T10:30:26;104113.63;;;4.19;96.82
53514;BME280;39768;54.148;12.174;2023-02-07T10:34:34;104115.66;;;4.10;97.34
53514;BME280;39768;54.148;12.174;2023-02-07T10:38:52;104116.19;;;4.44;95.55
53514;BME280;39768;54.148;12.174;2023-02-07T10:43:15;104114.06;;;4.12;93.20
53514;BME280;39768;54.148;12.174;2023-02-07T10:47:21;104109.91;;;4.42;90.36
53514;BME280;39768;54.148;12.174;2023-02-07T10:51:32;104113.63;;;4.45;89.09
53514;BME280;39768;54.148;12.174;2023-02-07T10:55:43;104109.13;;;4.84;88.28
53514;BME280;39768;54.148;12.174;2023-02-07T10:59:46;104109.13;;;4.84;85.95
53514;BME280;39768;54.148;12.174;2023-02-07T11:03:49;104100.81;;;4.78;85.53
53514;BME280;39768;54.148;12.174;2023-02-07T11:08:01;104098.34;;;4.94;87.07
53514;BME280;39768;54.148;12.174;2023-02-07T11:12:13;104090.59;;;5.10;85.92
53514;BME280;39768;54.148;12.174;2023-02-07T11:16:17;104090.59;;;5.10;83.25
53514;BME280;39768;54.148;12.174;2023-02-07T11:20:33;104092.38;;;4.96;81.83
53514;BME280;39768;54.148;12.174;2023-02-07T11:24:36;104090.88;;;5.15;80.54
53514;BME280;39768;54.148;12.174;2023-02-07T11:28:37;104089.06;;;5.56;78.39
53514;BME280;39768;54.148;12.174;2023-02-07T11:32:39;104087.56;;;5.32;81.02
53514;BME280;39768;54.148;12.174;2023-02-07T11:36:41;104076.97;;;5.60;78.78
53514;BME280;39768;54.148;12.174;2023-02-07T11:40:46;104080.69;;;5.49;80.69
53514;BME280;39768;54.148;12.174;2023-02-07T11:44:49;104074.25;;;5.58;78.80
53514;BME280;39768;54.148;12.174;2023-02-07T11:48:53;104082.06;;;5.57;78.14
53514;BME280;39768;54.148;12.174;2023-02-07T11:52:58;104081.97;;;5.55;76.17
53514;BME280;39768;54.148;12.174;2023-02-07T11:57:04;104082.25;;;5.60;75.13
53514;BME280;39768;54.148;12.174;2023-02-07T12:01:07;104092.09;;;5.92;71.70
53514;BME280;39768;54.148;12.174;2023-02-07T12:05:25;104083.34;;;5.63;63.87
53514;BME280;39768;54.148;12.174;2023-02-07T12:09:36;104080.06;;;5.82;60.28
53514;BME280;39768;54.148;12.174;2023-02-07T12:13:58;104074.97;;;6.00;59.87
53514;BME280;39768;54.148;12.174;2023-02-07T12:22:15;104068.81;;;5.99;60.18
53514;BME280;39768;54.148;12.174;2023-02-07T12:26:22;104067.25;;;6.03;58.48
53514;BME280;39768;54.148;12.174;2023-02-07T12:30:33;104068.88;;;6.16;57.15
53514;BME280;39768;54.148;12.174;2023-02-07T12:38:55;104056.19;;;6.25;60.43
53514;BME280;39768;54.148;12.174;2023-02-07T12:43:09;104048.09;;;6.36;61.70
53514;BME280;39768;54.148;12.174;2023-02-07T12:56:20;104033.88;;;5.74;67.34
53514;BME280;39768;54.148;12.174;2023-02-07T13:00:40;104027.41;;;5.69;67.33
53514;BME280;39768;54.148;12.174;2023-02-07T13:09:30;104029.44;;;5.73;64.85
53514;BME280;39768;54.148;12.174;2023-02-07T13:13:54;104015.63;;;5.92;63.49
53514;BME280;39768;54.148;12.174;2023-02-07T13:18:27;104020.31;;;5.97;62.88
53514;BME280;39768;54.148;12.174;2023-02-07T13:22:48;104014.50;;;6.03;60.72
53514;BME280;39768;54.148;12.174;2023-02-07T13:26:55;104021.81;;;5.92;61.85
53514;BME280;39768;54.148;12.174;2023-02-07T13:30:58;104016.47;;;6.22;60.98
53514;BME280;39768;54.148;12.174;2023-02-07T13:35:05;104019.19;;;6.09;62.05
53514;BME280;39768;54.148;12.174;2023-02-07T13:52:58;104001.28;;;6.18;66.78
53514;BME280;39768;54.148;12.174;2023-02-07T13:57:03;103990.47;;;6.13;67.39
53514;BME280;39768;54.148;12.174;2023-02-07T14:01:29;103993.63;;;6.22;66.08
53514;BME280;39768;54.148;12.174;2023-02-07T14:47:55;104015.66;;;6.23;54.86
53514;BME280;39768;54.148;12.174;2023-02-07T14:52:07;104014.97;;;6.27;55.92
53514;BME280;39768;54.148;12.174;2023-02-07T15:01:12;104012.22;;;5.94;50.89
53514;BME280;39768;54.148;12.174;2023-02-07T15:05:55;104014.97;;;5.66;51.20
53514;BME280;39768;54.148;12.174;2023-02-07T15:10:28;104010.97;;;5.29;51.73
53514;BME280;39768;54.148;12.174;2023-02-07T15:14:58;104005.44;;;5.24;50.88
53514;BME280;39768;54.148;12.174;2023-02-07T15:23:36;103989.34;;;5.20;50.36
53514;BME280;39768;54.148;12.174;2023-02-07T15:28:02;103997.50;;;4.67;49.72
53514;BME280;39768;54.148;12.174;2023-02-07T15:32:21;103989.84;;;4.85;48.43
53514;BME280;39768;54.148;12.174;2023-02-07T15:36:58;103990.56;;;4.54;47.99
53514;BME280;39768;54.148;12.174;2023-02-07T15:41:31;103986.41;;;4.58;46.92
53514;BME280;39768;54.148;12.174;2023-02-07T15:45:57;103984.94;;;4.35;48.07
53514;BME280;39768;54.148;12.174;2023-02-07T15:50:21;103985.88;;;4.64;47.57
53514;BME280;39768;54.148;12.174;2023-02-07T15:54:42;103991.69;;;4.58;47.51
53514;BME280;39768;54.148;12.174;2023-02-07T15:59:25;103993.00;;;4.51;47.07
53514;BME280;39768;54.148;12.174;2023-02-07T16:04:34;104005.94;;;4.48;47.51
53514;BME280;39768;54.148;12.174;2023-02-07T16:09:36;104003.47;;;4.37;47.40
53514;BME280;39768;54.148;12.174;2023-02-07T16:18:33;103996.13;;;4.05;48.43
53514;BME280;39768;54.148;12.174;2023-02-07T16:23:17;104008.69;;;3.82;50.16
53514;BME280;39768;54.148;12.174;2023-02-07T16:27:29;104008.81;;;3.71;50.04
53514;BME280;39768;54.148;12.174;2023-02-07T16:31:52;104014.09;;;3.46;51.67
53514;BME280;39768;54.148;12.174;2023-02-07T16:36:03;104013.47;;;3.24;53.17
53514;BME280;39768;54.148;12.174;2023-02-07T16:40:16;104017.50;;;3.32;52.91
53514;BME280;39768;54.148;12.174;2023-02-07T16:44:24;104018.03;;;3.26;53.84
53514;BME280;39768;54.148;12.174;2023-02-07T16:48:36;104031.09;;;3.13;55.11
53514;BME280;39768;54.148;12.174;2023-02-07T16:53:03;104029.03;;;2.96;55.36
53514;BME280;39768;54.148;12.174;2023-02-07T16:57:09;104023.50;;;2.79;57.73
53514;BME280;39768;54.148;12.174;2023-02-07T17:01:18;104017.13;;;2.76;59.10
53514;BME280;39768;54.148;12.174;2023-02-07T17:05:26;104026.09;;;2.55;61.33
53514;BME280;39768;54.148;12.174;2023-02-07T17:09:45;104019.00;;;2.54;61.88
53514;BME280;39768;54.148;12.174;2023-02-07T17:13:57;104018.56;;;2.59;62.05
53514;BME280;39768;54.148;12.174;2023-02-07T17:18:09;104019.00;;;2.54;62.83
53514;BME280;39768;54.148;12.174;2023-02-07T17:22:30;104026.41;;;2.59;61.98
53514;BME280;39768;54.148;12.174;2023-02-07T17:26:58;104037.19;;;2.51;63.06
53514;BME280;39768;54.148;12.174;2023-02-07T17:31:07;104039.34;;;2.44;64.66
53514;BME280;39768;54.148;12.174;2023-02-07T17:35:11;104039.41;;;2.21;66.64
53514;BME280;39768;54.148;12.174;2023-02-07T17:39:17;104038.38;;;2.19;69.59
53514;BME280;39768;54.148;12.174;2023-02-07T17:43:29;104035.63;;;2.29;66.88
53514;BME280;39768;54.148;12.174;2023-02-07T17:47:55;104035.53;;;2.04;68.52
53514;BME280;39768;54.148;12.174;2023-02-07T17:52:00;104032.47;;;1.98;69.60
53514;BME280;39768;54.148;12.174;2023-02-07T17:56:24;104041.69;;;2.05;70.05
53514;BME280;39768;54.148;12.174;2023-02-07T18:00:38;104038.75;;;1.89;70.08
53514;BME280;39768;54.148;12.174;2023-02-07T18:04:47;104032.47;;;1.75;72.01
53514;BME280;39768;54.148;12.174;2023-02-07T18:08:57;104037.59;;;1.73;72.62
53514;BME280;39768;54.148;12.174;2023-02-07T18:13:13;104035.88;;;1.86;73.04
53514;BME280;39768;54.148;12.174;2023-02-07T18:17:27;104027.09;;;2.08;70.28
53514;BME280;39768;54.148;12.174;2023-02-07T18:21:30;104023.47;;;2.06;68.16
53514;BME280;39768;54.148;12.174;2023-02-07T18:25:56;104017.41;;;1.96;70.18
53514;BME280;39768;54.148;12.174;2023-02-07T18:30:12;104010.47;;;1.85;69.87
53514;BME280;39768;54.148;12.174;2023-02-07T18:35:01;104015.84;;;1.63;73.36
53514;BME280;39768;54.148;12.174;2023-02-07T18:40:06;104022.66;;;1.72;73.20
53514;BME280;39768;54.148;12.174;2023-02-07T18:44:27;104030.84;;;1.65;77.08
53514;BME280;39768;54.148;12.174;2023-02-07T18:48:34;104033.25;;;1.74;75.75
53514;BME280;39768;54.148;12.174;2023-02-07T18:52:49;104049.41;;;1.80;83.89
53514;BME280;39768;54.148;12.174;2023-02-07T18:57:28;104053.06;;;1.94;83.59
53514;BME280;39768;54.148;12.174;2023-02-07T19:01:35;104051.59;;;1.86;85.12
53514;BME280;39768;54.148;12.174;2023-02-07T19:06:02;104050.25;;;1.91;87.47
53514;BME280;39768;54.148;12.174;2023-02-07T19:10:17;104050.81;;;1.75;88.21
53514;BME280;39768;54.148;12.174;2023-02-07T19:14:45;104055.97;;;1.40;91.28
53514;BME280;39768;54.148;12.174;2023-02-07T19:19:03;104047.59;;;1.67;91.68
53514;BME280;39768;54.148;12.174;2023-02-07T19:23:15;104047.81;;;1.59;92.67
53514;BME280;39768;54.148;12.174;2023-02-07T19:27:48;104040.66;;;1.56;92.53
53514;BME280;39768;54.148;12.174;2023-02-07T19:32:06;104037.78;;;1.53;91.91
53514;BME280;39768;54.148;12.174;2023-02-07T19:36:29;104036.00;;;1.99;88.29
53514;BME280;39768;54.148;12.174;2023-02-07T19:41:26;104030.31;;;1.93;87.31
53514;BME280;39768;54.148;12.174;2023-02-07T19:45:53;104034.75;;;1.14;93.42
53514;BME280;39768;54.148;12.174;2023-02-07T19:50:06;104024.25;;;1.59;95.07
53514;BME280;39768;54.148;12.174;2023-02-07T19:54:31;104022.31;;;1.80;89.94
53514;BME280;39768;54.148;12.174;2023-02-07T19:58:45;104027.91;;;1.61;93.15
53514;BME280;39768;54.148;12.174;2023-02-07T20:04:02;104032.25;;;1.72;92.92
53514;BME280;39768;54.148;12.174;2023-02-07T20:08:46;104043.63;;;1.72;90.83
53514;BME280;39768;54.148;12.174;2023-02-07T20:12:55;104045.78;;;1.66;91.93
53514;BME280;39768;54.148;12.174;2023-02-07T20:17:01;104052.94;;;1.46;93.03
53514;BME280;39768;54.148;12.174;2023-02-07T20:21:14;104047.88;;;1.37;94.67
53514;BME280;39768;54.148;12.174;2023-02-07T20:25:23;104043.03;;;1.08;96.54
53514;BME280;39768;54.148;12.174;2023-02-07T20:29:49;104037.44;;;1.49;95.89
53514;BME280;39768;54.148;12.174;2023-02-07T20:34:12;104035.81;;;1.39;93.47
53514;BME280;39768;54.148;12.174;2023-02-07T20:38:30;104035.66;;;1.14;96.14
53514;BME280;39768;54.148;12.174;2023-02-07T20:43:09;104037.09;;;0.99;98.96
53514;BME280;39768;54.148;12.174;2023-02-07T20:47:41;104029.91;;;0.96;98.81
53514;BME280;39768;54.148;12.174;2023-02-07T20:51:46;104042.28;;;0.87;98.79
53514;BME280;39768;54.148;12.174;2023-02-07T20:56:16;104043.91;;;0.97;99.66
53514;BME280;39768;54.148;12.174;2023-02-07T21:00:38;104044.09;;;1.22;98.55
53514;BME280;39768;54.148;12.174;2023-02-07T21:04:44;104045.38;;;1.27;100.00
53514;BME280;39768;54.148;12.174;2023-02-07T21:08:58;104050.25;;;0.89;100.00
53514;BME280;39768;54.148;12.174;2023-02-07T21:13:03;104040.78;;;0.57;100.00
53514;BME280;39768;54.148;12.174;2023-02-07T21:17:05;104046.34;;;0.40;100.00
53514;BME280;39768;54.148;12.174;2023-02-07T21:21:07;104045.31;;;0.38;100.00
53514;BME280;39768;54.148;12.174;2023-02-07T21:25:09;104033.63;;;0.45;100.00
53514;BME280;39768;54.148;12.174;2023-02-07T21:29:10;104042.69;;;0.38;100.00
53514;BME280;39768;54.148;12.174;2023-02-07T21:33:12;104035.41;;;0.56;100.00
53514;BME280;39768;54.148;12.174;2023-02-07T21:37:14;104042.28;;;0.65;100.00
53514;BME280;39768;54.148;12.174;2023-02-07T21:41:18;104048.41;;;0.66;100.00
53514;BME280;39768;54.148;12.174;2023-02-07T21:45:20;104044.78;;;0.64;100.00
53514;BME280;39768;54.148;12.174;2023-02-07T21:49:21;104046.59;;;0.65;100.00
53514;BME280;39768;54.148;12.174;2023-02-07T21:53:24;104047.72;;;0.57;100.00
53514;BME280;39768;54.148;12.174;2023-02-07T21:57:25;104048.97;;;0.62;100.00
53514;BME280;39768;54.148;12.174;2023-02-07T22:01:28;104037.31;;;0.68;100.00
53514;BME280;39768;54.148;12.174;2023-02-07T22:05:31;104039.19;;;0.59;100.00
53514;BME280;39768;54.148;12.174;2023-02-07T22:09:33;104032.69;;;0.54;100.00
53514;BME280;39768;54.148;12.174;2023-02-07T22:13:36;104043.25;;;0.78;100.00
53514;BME280;39768;54.148;12.174;2023-02-07T22:17:38;104031.03;;;0.66;100.00
53514;BME280;39768;54.148;12.174;2023-02-07T22:21:40;104034.78;;;0.48;100.00
53514;BME280;39768;54.148;12.174;2023-02-07T22:25:41;104034.78;;;0.48;100.00
53514;BME280;39768;54.148;12.174;2023-02-07T22:29:43;104029.44;;;0.47;100.00
53514;BME280;39768;54.148;12.174;2023-02-07T22:33:45;104035.84;;;0.18;100.00
53514;BME280;39768;54.148;12.174;2023-02-07T22:37:47;104039.97;;;0.37;100.00
53514;BME280;39768;54.148;12.174;2023-02-07T22:41:48;104035.53;;;0.04;100.00
53514;BME280;39768;54.148;12.174;2023-02-07T22:45:50;104035.69;;;0.27;100.00
53514;BME280;39768;54.148;12.174;2023-02-07T22:49:51;104036.69;;;0.07;100.00
53514;BME280;39768;54.148;12.174;2023-02-07T22:53:55;104048.97;;;0.08;100.00
53514;BME280;39768;54.148;12.174;2023-02-07T22:57:58;104038.56;;;0.52;100.00
53514;BME280;39768;54.148;12.174;2023-02-07T23:01:59;104050.91;;;0.43;100.00
53514;BME280;39768;54.148;12.174;2023-02-07T23:06:04;104053.66;;;0.44;100.00
53514;BME280;39768;54.148;12.174;2023-02-07T23:10:09;104053.53;;;0.43;100.00
53514;BME280;39768;54.148;12.174;2023-02-07T23:14:11;104067.28;;;-0.02;100.00
53514;BME280;39768;54.148;12.174;2023-02-07T23:18:14;104071.47;;;-0.14;100.00
53514;BME280;39768;54.148;12.174;2023-02-07T23:22:16;104075.53;;;-0.08;100.00
53514;BME280;39768;54.148;12.174;2023-02-07T23:26:21;104078.31;;;-0.16;100.00
53514;BME280;39768;54.148;12.174;2023-02-07T23:30:23;104084.00;;;-0.10;100.00
53514;BME280;39768;54.148;12.174;2023-02-07T23:34:24;104080.13;;;-0.15;100.00
53514;BME280;39768;54.148;12.174;2023-02-07T23:38:27;104074.91;;;-0.15;100.00